createdAt,value
2022-10-19T00:01:38.662Z,53.03
2022-10-19T00:04:08.884Z,53.56
2022-10-19T00:06:39.313Z,54.95
2022-10-19T00:09:19.830Z,54.90
2022-10-19T00:11:51.686Z,54.85
2022-10-19T00:14:24.755Z,54.09
2022-10-19T00:16:55.433Z,54.65
2022-10-19T00:19:27.267Z,54.32
2022-10-19T00:21:56.446Z,54.31
2022-10-19T00:24:25.447Z,54.57
2022-10-19T00:26:54.955Z,54.60
2022-10-19T00:29:23.803Z,54.75
2022-10-19T00:31:53.341Z,54.42
2022-10-19T00:34:22.217Z,54.50
2022-10-19T00:36:52.290Z,55.29
2022-10-19T00:39:21.099Z,55.38
2022-10-19T00:41:50.992Z,55.76
2022-10-19T00:44:19.926Z,56.50
2022-10-19T00:46:49.769Z,56.35
2022-10-19T00:49:31.217Z,56.18
2022-10-19T00:52:07.664Z,56.54
2022-10-19T00:54:40.584Z,56.21
2022-10-19T00:57:11.139Z,56.79
2022-10-19T01:00:00.481Z,56.50
2022-10-19T01:02:32.694Z,56.81
2022-10-19T01:05:06.969Z,56.64
2022-10-19T01:07:37.554Z,56.94
2022-10-19T01:10:08.498Z,56.82
2022-10-19T01:12:48.509Z,56.94
2022-10-19T01:15:46.871Z,56.97
2022-10-19T01:18:34.158Z,57.76
2022-10-19T01:21:21.432Z,57.54
2022-10-19T01:24:31.199Z,57.67
2022-10-19T01:27:14.074Z,57.43
2022-10-19T01:30:00.144Z,57.82
2022-10-19T01:32:54.316Z,59.14
2022-10-19T01:35:34.615Z,60.73
2022-10-19T01:38:05.098Z,59.22
2022-10-19T01:40:57.398Z,58.06
2022-10-19T01:43:44.764Z,58.41
2022-10-19T01:46:31.572Z,59.02
2022-10-19T01:49:11.513Z,58.27
2022-10-19T01:51:52.230Z,58.23
2022-10-19T01:54:26.140Z,58.79
2022-10-19T01:56:59.150Z,59.00
2022-10-19T01:59:33.356Z,59.23
2022-10-19T02:02:07.415Z,60.45
2022-10-19T02:07:25.634Z,62.82
2022-10-19T02:09:56.895Z,62.64
2022-10-19T02:12:31.719Z,61.83
2022-10-19T02:15:08.897Z,61.89
2022-10-19T02:17:46.764Z,61.81
2022-10-19T02:20:20.069Z,61.61
2022-10-19T02:22:52.561Z,61.49
2022-10-19T02:25:23.860Z,62.53
2022-10-19T02:27:56.125Z,62.75
2022-10-19T02:30:26.929Z,62.01
2022-10-19T02:33:01.857Z,61.19
2022-10-19T02:35:33.599Z,60.80
2022-10-19T02:38:06.207Z,61.34
2022-10-19T02:40:42.871Z,60.94
2022-10-19T02:43:21.451Z,61.66
2022-10-19T02:46:07.988Z,62.19
2022-10-19T02:48:41.498Z,62.60
2022-10-19T02:51:40.362Z,61.31
2022-10-19T02:54:11.525Z,61.40
2022-10-19T02:56:43.975Z,61.47
2022-10-19T02:59:15.294Z,61.25
2022-10-19T03:01:48.609Z,61.71
2022-10-19T03:07:04.904Z,61.95
2022-10-19T03:09:36.503Z,61.48
2022-10-19T03:12:12.071Z,61.97
2022-10-19T03:14:46.799Z,61.56
2022-10-19T03:17:18.979Z,60.90
2022-10-19T03:19:53.210Z,60.65
2022-10-19T03:22:23.612Z,60.86
2022-10-19T03:24:54.136Z,60.91
2022-10-19T03:27:30.835Z,61.67
2022-10-19T03:30:07.111Z,60.64
2022-10-19T03:32:43.290Z,60.70
2022-10-19T03:35:16.070Z,61.07
2022-10-19T03:37:49.760Z,61.06
2022-10-19T03:40:21.039Z,60.44
2022-10-19T03:42:53.589Z,60.80
2022-10-19T03:45:25.057Z,60.88
2022-10-19T03:48:00.088Z,60.86
2022-10-19T03:50:33.351Z,60.63
2022-10-19T03:53:06.508Z,59.48
2022-10-19T03:55:36.869Z,58.94
2022-10-19T03:58:10.180Z,59.07
2022-10-19T04:00:44.257Z,59.42
2022-10-19T04:03:26.984Z,59.09
2022-10-19T04:06:08.131Z,59.43
2022-10-19T04:08:40.018Z,59.52
2022-10-19T04:11:20.994Z,58.42
2022-10-19T04:13:54.465Z,58.26
2022-10-19T04:16:29.701Z,58.95
2022-10-19T04:19:01.931Z,58.59
2022-10-19T04:21:37.996Z,57.78
2022-10-19T04:24:20.710Z,57.45
2022-10-19T04:26:53.426Z,57.46
2022-10-19T04:29:29.792Z,57.26
2022-10-19T04:32:05.323Z,58.15
2022-10-19T04:34:37.756Z,57.71
2022-10-19T04:37:13.060Z,57.64
2022-10-19T04:39:46.834Z,57.00
2022-10-19T04:42:25.176Z,57.19
2022-10-19T04:44:55.747Z,57.17
2022-10-19T04:47:29.545Z,57.52
2022-10-19T04:50:05.061Z,58.00
2022-10-19T04:52:40.397Z,57.56
2022-10-19T04:55:14.094Z,58.03
2022-10-19T04:58:18.908Z,57.41
2022-10-19T05:03:48.963Z,57.59
2022-10-19T05:10:23.067Z,57.09
2022-10-19T05:16:03.880Z,57.21
2022-10-19T05:18:39.499Z,57.67
2022-10-19T05:21:16.316Z,56.63
2022-10-19T05:24:02.592Z,55.98
2022-10-19T05:26:47.022Z,55.17
2022-10-19T05:29:28.559Z,55.98
2022-10-19T05:35:05.073Z,54.80
2022-10-19T05:37:43.925Z,55.10
2022-10-19T05:43:27.975Z,54.45
2022-10-19T05:46:04.458Z,54.36
2022-10-19T05:48:49.350Z,53.79
2022-10-19T05:51:25.111Z,53.82
2022-10-19T05:54:07.015Z,53.79
2022-10-19T05:56:45.799Z,52.90
2022-10-19T05:59:24.491Z,52.76
2022-10-19T06:02:02.861Z,52.03
2022-10-19T06:07:22.544Z,51.62
2022-10-19T06:10:08.720Z,50.67
2022-10-19T06:12:56.080Z,50.80
2022-10-19T06:18:41.613Z,50.13
2022-10-19T06:21:34.454Z,51.03
2022-10-19T06:24:30.854Z,50.71
2022-10-19T06:27:19.674Z,51.07
2022-10-19T06:29:58.720Z,49.98
2022-10-19T06:32:36.557Z,49.19
2022-10-19T06:35:15.511Z,48.85
2022-10-19T06:37:59.768Z,48.76
2022-10-19T06:40:48.029Z,49.76
2022-10-19T06:43:27.629Z,50.21
2022-10-19T06:46:07.644Z,49.80
2022-10-19T06:48:51.516Z,49.55
2022-10-19T06:51:28.197Z,48.54
2022-10-19T06:53:59.815Z,48.79
2022-10-19T06:56:40.503Z,48.12
2022-10-19T06:59:20.916Z,46.36
2022-10-19T07:02:11.735Z,47.94
2022-10-19T07:04:52.930Z,47.89
2022-10-19T07:07:26.853Z,47.51
2022-10-19T07:10:09.302Z,46.72
2022-10-19T07:13:40.410Z,48.66
2022-10-19T07:16:24.499Z,47.66
2022-10-19T07:19:20.466Z,48.00
2022-10-19T07:22:04.279Z,48.51
2022-10-19T07:24:43.774Z,48.59
2022-10-19T07:27:15.696Z,48.63
2022-10-19T07:29:55.407Z,49.37
2022-10-19T07:35:29.295Z,48.28
2022-10-19T07:38:09.342Z,48.96
2022-10-19T07:40:50.334Z,46.72
2022-10-19T07:43:26.650Z,47.23
2022-10-19T07:46:20.775Z,45.93
2022-10-19T07:49:08.304Z,47.14
2022-10-19T07:51:48.038Z,46.69
2022-10-19T07:54:25.618Z,47.07
2022-10-19T07:57:10.316Z,46.47
2022-10-19T07:59:44.869Z,46.59
2022-10-19T08:05:20.212Z,46.34
2022-10-19T08:07:55.612Z,45.11
2022-10-19T08:10:29.844Z,44.53
2022-10-19T08:13:10.949Z,44.92
2022-10-19T08:15:51.200Z,44.08
2022-10-19T08:18:39.545Z,45.21
2022-10-19T08:21:20.341Z,44.72
2022-10-19T08:24:00.968Z,44.46
2022-10-19T08:26:49.858Z,45.01
2022-10-19T08:29:33.378Z,43.93
2022-10-19T08:32:06.714Z,45.42
2022-10-19T08:34:47.603Z,44.94
2022-10-19T08:37:40.636Z,45.20
2022-10-19T08:40:29.902Z,44.96
2022-10-19T08:43:07.253Z,44.63
2022-10-19T08:46:00.243Z,45.44
2022-10-19T08:48:44.447Z,44.88
2022-10-19T08:51:45.676Z,45.41
2022-10-19T08:54:24.172Z,45.02
2022-10-19T08:57:03.717Z,43.65
2022-10-19T09:00:16.599Z,44.62
2022-10-19T09:03:32.108Z,45.46
2022-10-19T09:06:33.835Z,43.32
2022-10-19T09:09:16.423Z,44.28
2022-10-19T09:11:55.654Z,44.19
2022-10-19T09:14:58.249Z,44.57
2022-10-19T09:17:34.332Z,45.01
2022-10-19T09:23:45.128Z,45.20
2022-10-19T09:27:06.411Z,44.94
2022-10-19T09:30:14.677Z,45.99
2022-10-19T09:32:53.357Z,45.72
2022-10-19T09:35:53.645Z,45.06
2022-10-19T09:38:30.433Z,45.29
2022-10-19T09:41:35.142Z,45.26
2022-10-19T09:44:09.120Z,45.89
2022-10-19T09:47:18.467Z,46.08
2022-10-19T09:49:57.819Z,46.56
2022-10-19T09:52:48.510Z,46.14
2022-10-19T09:55:38.251Z,47.65
2022-10-19T09:58:34.794Z,47.03
2022-10-19T10:01:11.772Z,46.30
2022-10-19T10:04:19.907Z,46.83
2022-10-19T10:06:59.534Z,46.49
2022-10-19T10:09:37.291Z,45.58
2022-10-19T10:15:39.335Z,44.84
2022-10-19T10:18:21.405Z,44.99
2022-10-19T10:21:33.767Z,45.16
2022-10-19T10:24:23.512Z,44.88
2022-10-19T10:27:09.241Z,43.25
2022-10-19T10:30:00.344Z,43.56
2022-10-19T10:32:35.204Z,43.12
2022-10-19T10:35:25.864Z,42.66
2022-10-19T10:38:26.136Z,43.95
2022-10-19T10:44:09.487Z,43.86
2022-10-19T10:50:12.769Z,43.27
2022-10-19T10:53:29.574Z,44.04
2022-10-19T10:56:35.579Z,43.05
2022-10-19T10:59:32.657Z,43.19
2022-10-19T11:02:28.056Z,42.78
2022-10-19T11:05:54.399Z,42.71
2022-10-19T11:08:48.035Z,43.24
2022-10-19T11:11:40.361Z,43.35
2022-10-19T11:14:49.446Z,43.95
2022-10-19T11:17:55.652Z,45.51
2022-10-19T11:20:44.275Z,47.21
2022-10-19T11:23:49.726Z,48.38
2022-10-19T11:26:52.223Z,48.91
2022-10-19T11:29:47.780Z,48.89
2022-10-19T11:32:51.986Z,49.33
2022-10-19T11:36:05.574Z,49.50
2022-10-19T11:38:57.277Z,49.36
2022-10-19T11:41:59.507Z,50.20
2022-10-19T11:44:48.228Z,50.38
2022-10-19T11:47:45.034Z,50.85
2022-10-19T11:50:37.307Z,51.18
2022-10-19T11:53:49.207Z,51.44
2022-10-19T11:56:58.141Z,51.74
2022-10-19T12:00:21.124Z,52.64
2022-10-19T12:03:27.870Z,52.63
2022-10-19T12:06:25.390Z,52.65
2022-10-19T12:09:24.396Z,52.56
2022-10-19T12:12:44.645Z,52.97
2022-10-19T12:16:11.990Z,52.55
2022-10-19T12:19:07.396Z,53.36
2022-10-19T12:21:52.533Z,53.59
2022-10-19T12:24:40.209Z,53.78
2022-10-19T12:30:26.950Z,53.94
2022-10-19T12:33:50.213Z,54.28
2022-10-19T12:36:50.730Z,54.11
2022-10-19T12:40:01.334Z,54.07
2022-10-19T12:43:29.995Z,54.60
2022-10-19T12:47:01.958Z,54.20
2022-10-19T12:49:42.046Z,54.89
2022-10-19T12:55:43.582Z,54.56
2022-10-19T12:58:37.563Z,54.93
2022-10-19T13:01:22.410Z,55.31
2022-10-19T13:04:13.214Z,54.90
2022-10-19T13:07:25.194Z,55.20
2022-10-19T13:10:17.078Z,54.98
2022-10-19T13:22:41.105Z,55.23
2022-10-19T13:28:38.111Z,55.09
2022-10-19T13:31:38.844Z,55.57
2022-10-19T13:34:19.959Z,56.23
2022-10-19T13:37:15.592Z,56.28
2022-10-19T13:40:09.187Z,56.60
2022-10-19T13:48:43.665Z,58.01
2022-10-19T13:51:57.741Z,57.72
2022-10-19T13:55:10.548Z,58.57
2022-10-19T14:01:22.854Z,57.73
2022-10-19T14:04:50.978Z,58.16
2022-10-19T14:07:31.378Z,59.90
2022-10-19T14:11:00.722Z,61.06
2022-10-19T14:13:43.357Z,61.97
2022-10-19T14:16:28.353Z,61.64
2022-10-19T14:19:04.487Z,60.02
2022-10-19T14:22:10.828Z,61.29
2022-10-19T14:24:40.225Z,62.08
2022-10-19T14:27:09.827Z,61.55
2022-10-19T14:29:48.433Z,62.33
2022-10-19T14:32:20.185Z,62.37
2022-10-19T14:34:50.670Z,63.66
2022-10-19T14:37:28.631Z,63.82
2022-10-19T14:40:06.023Z,63.85
2022-10-19T14:42:44.061Z,64.25
2022-10-19T14:45:28.719Z,65.11
2022-10-19T14:48:02.338Z,65.94
2022-10-19T14:50:46.486Z,65.69
2022-10-19T14:53:38.329Z,65.76
2022-10-19T14:56:24.686Z,66.49
2022-10-19T14:59:02.229Z,66.76
2022-10-19T15:01:31.903Z,66.77
2022-10-19T15:04:01.322Z,67.32
2022-10-19T15:06:37.395Z,67.08
2022-10-19T15:09:15.448Z,67.41
2022-10-19T15:11:56.328Z,68.38
2022-10-19T15:14:32.056Z,68.46
2022-10-19T15:17:07.165Z,68.93
2022-10-19T15:19:39.560Z,69.22
2022-10-19T15:22:16.703Z,68.92
2022-10-19T15:25:24.025Z,68.83
2022-10-19T15:27:54.782Z,69.58
2022-10-19T15:30:30.358Z,70.00
2022-10-19T15:32:59.831Z,70.13
2022-10-19T15:35:34.018Z,70.18
2022-10-19T15:38:12.503Z,70.76
2022-10-19T15:40:44.923Z,69.80
2022-10-19T15:43:32.048Z,69.44
2022-10-19T15:46:06.051Z,69.67
2022-10-19T15:48:51.085Z,69.23
2022-10-19T15:51:26.615Z,69.87
2022-10-19T15:53:57.650Z,70.20
2022-10-19T15:56:29.912Z,69.97
2022-10-19T15:59:02.601Z,69.60
2022-10-19T16:01:35.428Z,69.24
2022-10-19T16:04:04.876Z,69.63
2022-10-19T16:06:35.552Z,69.30
2022-10-19T16:09:05.697Z,68.69
2022-10-19T16:11:36.574Z,67.94
2022-10-19T16:14:06.092Z,68.56
2022-10-19T16:16:35.810Z,67.52
2022-10-19T16:19:07.408Z,67.52
2022-10-19T16:21:37.990Z,67.68
2022-10-19T16:24:07.550Z,66.27
2022-10-19T16:26:36.786Z,65.87
2022-10-19T16:29:06.096Z,66.21
2022-10-19T16:31:35.311Z,65.67
2022-10-19T16:34:04.659Z,65.37
2022-10-19T16:36:34.110Z,65.50
2022-10-19T16:39:05.616Z,65.47
2022-10-19T16:41:34.995Z,65.03
2022-10-19T16:44:04.321Z,65.32
2022-10-19T16:46:34.056Z,65.06
2022-10-19T16:49:03.162Z,65.10
2022-10-19T16:51:38.677Z,65.29
2022-10-19T16:54:10.157Z,64.88
2022-10-19T16:56:45.792Z,65.15
2022-10-19T16:59:17.764Z,64.95
2022-10-19T17:01:48.429Z,64.95
2022-10-19T17:04:22.008Z,64.33
2022-10-19T17:06:51.965Z,64.22
2022-10-19T17:09:40.850Z,63.98
2022-10-19T17:12:11.108Z,64.13
2022-10-19T17:14:42.472Z,64.04
2022-10-19T17:17:12.592Z,63.92
2022-10-19T17:19:41.920Z,64.04
2022-10-19T17:22:11.306Z,64.18
2022-10-19T17:24:40.610Z,63.94
2022-10-19T17:27:10.128Z,64.03
2022-10-19T17:29:39.235Z,64.11
2022-10-19T17:32:08.756Z,63.83
2022-10-19T17:34:37.931Z,64.17
2022-10-19T17:37:07.358Z,63.82
2022-10-19T17:39:36.515Z,64.29
2022-10-19T17:42:05.926Z,64.30
2022-10-19T17:44:35.116Z,63.99
2022-10-19T17:47:04.787Z,64.10
2022-10-19T17:49:33.818Z,64.07
2022-10-19T17:52:03.111Z,63.77
2022-10-19T17:54:43.364Z,63.82
2022-10-19T17:57:21.716Z,63.87
2022-10-19T17:59:52.802Z,63.60
2022-10-19T18:02:22.922Z,63.59
2022-10-19T18:04:52.092Z,63.92
2022-10-19T18:07:23.005Z,63.45
2022-10-19T18:09:53.341Z,63.34
2022-10-19T18:12:22.910Z,63.51
2022-10-19T18:14:52.213Z,63.31
2022-10-19T18:17:24.132Z,64.04
2022-10-19T18:19:56.543Z,63.48
2022-10-19T18:22:25.609Z,63.68
2022-10-19T18:24:55.127Z,63.05
2022-10-19T18:27:26.835Z,63.35
2022-10-19T18:29:56.500Z,62.67
2022-10-19T18:32:25.747Z,62.31
2022-10-19T18:34:55.353Z,62.70
2022-10-19T18:37:25.891Z,63.08
2022-10-19T18:39:55.374Z,62.82
2022-10-19T18:42:24.757Z,62.90
2022-10-19T18:44:54.133Z,62.96
2022-10-19T18:47:23.312Z,62.84
2022-10-19T18:49:52.888Z,62.77
2022-10-19T18:52:22.241Z,62.83
2022-10-19T18:54:51.443Z,63.39
2022-10-19T18:57:20.719Z,63.30
2022-10-19T18:59:51.077Z,63.25
2022-10-19T19:02:22.671Z,63.29
2022-10-19T19:04:57.973Z,63.55
2022-10-19T19:07:27.119Z,63.92
2022-10-19T19:09:56.401Z,63.85
2022-10-19T19:12:25.831Z,63.82
2022-10-19T19:14:55.284Z,64.23
2022-10-19T19:17:24.613Z,64.68
2022-10-19T19:19:54.235Z,64.39
2022-10-19T19:22:27.281Z,64.71
2022-10-19T19:24:56.968Z,65.04
2022-10-19T19:27:30.835Z,65.48
2022-10-19T19:30:05.983Z,65.29
2022-10-19T19:32:37.066Z,65.52
2022-10-19T19:35:07.270Z,65.45
2022-10-19T19:37:37.838Z,65.71
2022-10-19T19:40:08.066Z,65.74
2022-10-19T19:42:38.469Z,65.92
2022-10-19T19:45:10.773Z,65.91
2022-10-19T19:47:40.560Z,65.46
2022-10-19T19:50:10.535Z,65.76
2022-10-19T19:52:41.308Z,65.76
2022-10-19T19:55:10.946Z,65.48
2022-10-19T19:57:40.982Z,65.58
2022-10-19T20:00:11.327Z,65.77
2022-10-19T20:02:44.761Z,65.54
2022-10-19T20:05:17.339Z,65.80
2022-10-19T20:07:47.037Z,65.41
2022-10-19T20:10:19.989Z,65.99
2022-10-19T20:12:49.646Z,66.11
2022-10-19T20:15:20.149Z,66.10
2022-10-19T20:17:50.027Z,66.29
2022-10-19T20:20:19.376Z,66.58
2022-10-19T20:22:49.951Z,66.46
2022-10-19T20:25:19.385Z,66.58
2022-10-19T20:27:48.579Z,66.76
2022-10-19T20:30:18.442Z,66.49
2022-10-19T20:32:48.657Z,66.64
2022-10-19T20:35:18.206Z,66.77
2022-10-19T20:37:51.493Z,66.90
2022-10-19T20:40:21.117Z,66.82
2022-10-19T20:42:50.306Z,67.06
2022-10-19T20:45:19.582Z,67.16
2022-10-19T20:47:49.042Z,67.44
2022-10-19T20:50:21.661Z,67.10
2022-10-19T20:52:51.670Z,67.01
2022-10-19T20:55:23.046Z,66.91
2022-10-19T20:57:52.847Z,67.23
2022-10-19T21:00:22.044Z,66.72
2022-10-19T21:02:51.928Z,66.78
2022-10-19T21:05:21.485Z,67.20
2022-10-19T21:07:51.117Z,67.13
2022-10-19T21:10:20.236Z,67.68
2022-10-19T21:12:49.579Z,67.87
2022-10-19T21:15:18.929Z,67.98
2022-10-19T21:17:49.167Z,68.40
2022-10-19T21:20:18.767Z,68.68
2022-10-19T21:22:47.935Z,68.71
2022-10-19T21:25:18.149Z,68.73
2022-10-19T21:27:47.194Z,68.51
2022-10-19T21:30:16.757Z,68.25
2022-10-19T21:32:47.398Z,68.72
2022-10-19T21:35:20.554Z,68.83
2022-10-19T21:37:50.868Z,69.35
2022-10-19T21:40:20.889Z,69.54
2022-10-19T21:42:58.781Z,69.91
2022-10-19T21:45:30.624Z,70.36
2022-10-19T21:48:02.614Z,70.67
2022-10-19T21:50:35.648Z,70.81
2022-10-19T21:53:05.706Z,70.79
2022-10-19T21:55:36.116Z,71.21
2022-10-19T21:58:08.913Z,71.65
2022-10-19T22:00:38.502Z,71.52
2022-10-19T22:03:07.385Z,71.64
2022-10-19T22:05:36.831Z,71.72
2022-10-19T22:08:05.935Z,71.96
2022-10-19T22:10:35.053Z,72.53
2022-10-19T22:13:03.918Z,71.87
2022-10-19T22:15:33.259Z,71.87
2022-10-19T22:18:02.104Z,72.05
2022-10-19T22:20:31.116Z,71.46
2022-10-19T22:23:00.996Z,71.33
2022-10-19T22:25:32.419Z,71.15
2022-10-19T22:28:02.932Z,71.01
2022-10-19T22:30:32.062Z,71.00
2022-10-19T22:33:01.057Z,71.03
2022-10-19T22:35:30.210Z,71.77
2022-10-19T22:37:59.112Z,71.72
2022-10-19T22:40:28.187Z,72.08
2022-10-19T22:42:57.269Z,72.50
2022-10-19T22:45:26.474Z,72.57
2022-10-19T22:47:55.311Z,73.21
2022-10-19T22:50:24.779Z,73.18
2022-10-19T22:52:53.607Z,73.20
2022-10-19T22:55:22.941Z,75.13
2022-10-19T22:57:52.027Z,76.15
2022-10-19T23:00:21.213Z,76.66
2022-10-19T23:02:50.152Z,75.85
2022-10-19T23:05:19.512Z,76.13
2022-10-19T23:07:48.481Z,76.30
2022-10-19T23:10:18.812Z,77.18
2022-10-19T23:12:52.210Z,78.80
2022-10-19T23:15:22.804Z,78.66
2022-10-19T23:17:52.163Z,78.09
2022-10-19T23:20:21.037Z,78.90
2022-10-19T23:22:59.434Z,79.37
2022-10-19T23:25:41.088Z,79.19
2022-10-19T23:28:11.860Z,79.11
2022-10-19T23:30:42.975Z,79.11
2022-10-19T23:33:12.741Z,79.88
2022-10-19T23:35:41.680Z,79.90
2022-10-19T23:38:10.875Z,79.80
2022-10-19T23:40:39.932Z,79.51
2022-10-19T23:43:09.276Z,79.68
2022-10-19T23:45:40.089Z,79.37
2022-10-19T23:48:09.315Z,79.69
2022-10-19T23:50:38.430Z,79.42
2022-10-19T23:53:07.796Z,79.32
2022-10-19T23:55:36.895Z,79.04
2022-10-19T23:58:06.092Z,78.95
